sensor_id;sensor_type;location;lat;lon;timestamp;P1;durP1;ratioP1;P2;durP2;ratioP2
45322;SDS011;31382;50.200;8.674;2024-03-22T00:03:09;12.07;;;6.18;;
45322;SDS011;31382;50.200;8.674;2024-03-22T00:08:09;13.63;;;6.93;;
45322;SDS011;31382;50.200;8.674;2024-03-22T00:13:10;11.38;;;5.60;;
45322;SDS011;31382;50.200;8.674;2024-03-22T00:18:11;8.80;;;5.25;;
45322;SDS011;31382;50.200;8.674;2024-03-22T00:23:12;11.55;;;5.95;;
45322;SDS011;31382;50.200;8.674;2024-03-22T00:28:12;16.20;;;6.03;;
45322;SDS011;31382;50.200;8.674;2024-03-22T00:33:13;11.50;;;5.63;;
45322;SDS011;31382;50.200;8.674;2024-03-22T00:38:13;12.07;;;5.03;;
45322;SDS011;31382;50.200;8.674;2024-03-22T00:43:14;11.38;;;5.50;;
45322;SDS011;31382;50.200;8.674;2024-03-22T00:48:14;10.57;;;5.15;;
45322;SDS011;31382;50.200;8.674;2024-03-22T00:53:16;11.57;;;5.60;;
45322;SDS011;31382;50.200;8.674;2024-03-22T00:58:18;9.57;;;5.53;;
45322;SDS011;31382;50.200;8.674;2024-03-22T01:03:19;11.02;;;5.15;;
45322;SDS011;31382;50.200;8.674;2024-03-22T01:08:19;13.68;;;5.57;;
45322;SDS011;31382;50.200;8.674;2024-03-22T01:13:20;12.40;;;5.40;;
45322;SDS011;31382;50.200;8.674;2024-03-22T01:18:21;14.15;;;6.10;;
45322;SDS011;31382;50.200;8.674;2024-03-22T01:23:21;10.32;;;5.00;;
45322;SDS011;31382;50.200;8.674;2024-03-22T01:28:22;12.18;;;5.95;;
45322;SDS011;31382;50.200;8.674;2024-03-22T01:33:22;12.20;;;6.50;;
45322;SDS011;31382;50.200;8.674;2024-03-22T01:38:23;18.92;;;6.45;;
45322;SDS011;31382;50.200;8.674;2024-03-22T01:43:23;11.02;;;6.18;;
45322;SDS011;31382;50.200;8.674;2024-03-22T01:48:24;12.13;;;5.18;;
45322;SDS011;31382;50.200;8.674;2024-03-22T01:53:24;14.25;;;6.30;;
45322;SDS011;31382;50.200;8.674;2024-03-22T01:58:25;11.50;;;5.63;;
45322;SDS011;31382;50.200;8.674;2024-03-22T02:03:25;12.07;;;5.78;;
45322;SDS011;31382;50.200;8.674;2024-03-22T02:08:26;13.27;;;6.55;;
45322;SDS011;31382;50.200;8.674;2024-03-22T02:13:26;15.20;;;6.07;;
45322;SDS011;31382;50.200;8.674;2024-03-22T02:18:27;21.52;;;11.18;;
45322;SDS011;31382;50.200;8.674;2024-03-22T02:23:34;50.42;;;23.42;;
45322;SDS011;31382;50.200;8.674;2024-03-22T02:28:35;35.03;;;18.45;;
45322;SDS011;31382;50.200;8.674;2024-03-22T02:33:36;29.20;;;13.73;;
45322;SDS011;31382;50.200;8.674;2024-03-22T02:38:36;24.80;;;11.75;;
45322;SDS011;31382;50.200;8.674;2024-03-22T02:43:37;20.05;;;9.60;;
45322;SDS011;31382;50.200;8.674;2024-03-22T02:48:37;17.50;;;8.52;;
45322;SDS011;31382;50.200;8.674;2024-03-22T02:53:38;17.55;;;7.82;;
45322;SDS011;31382;50.200;8.674;2024-03-22T02:58:38;16.13;;;7.78;;
45322;SDS011;31382;50.200;8.674;2024-03-22T03:03:39;13.45;;;6.60;;
45322;SDS011;31382;50.200;8.674;2024-03-22T03:08:39;15.43;;;6.60;;
45322;SDS011;31382;50.200;8.674;2024-03-22T03:13:40;16.98;;;6.45;;
45322;SDS011;31382;50.200;8.674;2024-03-22T03:18:40;15.85;;;6.55;;
45322;SDS011;31382;50.200;8.674;2024-03-22T03:23:41;17.67;;;7.28;;
45322;SDS011;31382;50.200;8.674;2024-03-22T03:28:42;16.40;;;7.45;;
45322;SDS011;31382;50.200;8.674;2024-03-22T03:33:42;15.52;;;6.97;;
45322;SDS011;31382;50.200;8.674;2024-03-22T03:38:43;18.27;;;7.13;;
45322;SDS011;31382;50.200;8.674;2024-03-22T03:43:43;15.48;;;7.35;;
45322;SDS011;31382;50.200;8.674;2024-03-22T03:48:44;12.82;;;6.20;;
45322;SDS011;31382;50.200;8.674;2024-03-22T03:53:44;18.08;;;7.47;;
45322;SDS011;31382;50.200;8.674;2024-03-22T03:58:47;16.98;;;7.65;;
45322;SDS011;31382;50.200;8.674;2024-03-22T04:03:48;16.52;;;6.65;;
45322;SDS011;31382;50.200;8.674;2024-03-22T04:08:49;16.98;;;7.28;;
45322;SDS011;31382;50.200;8.674;2024-03-22T04:13:49;19.45;;;7.68;;
45322;SDS011;31382;50.200;8.674;2024-03-22T04:18:50;18.83;;;8.65;;
45322;SDS011;31382;50.200;8.674;2024-03-22T04:23:51;16.20;;;7.28;;
45322;SDS011;31382;50.200;8.674;2024-03-22T04:28:51;24.65;;;8.75;;
45322;SDS011;31382;50.200;8.674;2024-03-22T04:33:52;15.90;;;7.30;;
45322;SDS011;31382;50.200;8.674;2024-03-22T04:38:52;17.58;;;8.05;;
45322;SDS011;31382;50.200;8.674;2024-03-22T04:43:53;24.10;;;8.80;;
45322;SDS011;31382;50.200;8.674;2024-03-22T04:48:53;19.65;;;8.65;;
45322;SDS011;31382;50.200;8.674;2024-03-22T04:53:54;19.15;;;8.05;;
45322;SDS011;31382;50.200;8.674;2024-03-22T04:58:54;18.50;;;8.02;;
45322;SDS011;31382;50.200;8.674;2024-03-22T05:03:55;20.15;;;8.15;;
45322;SDS011;31382;50.200;8.674;2024-03-22T05:08:56;21.23;;;8.80;;
45322;SDS011;31382;50.200;8.674;2024-03-22T05:13:57;22.77;;;9.63;;
45322;SDS011;31382;50.200;8.674;2024-03-22T05:18:58;25.35;;;10.10;;
45322;SDS011;31382;50.200;8.674;2024-03-22T05:23:59;21.80;;;10.55;;
45322;SDS011;31382;50.200;8.674;2024-03-22T05:28:59;21.27;;;9.13;;
45322;SDS011;31382;50.200;8.674;2024-03-22T05:34:00;17.13;;;8.05;;
45322;SDS011;31382;50.200;8.674;2024-03-22T05:39:00;20.52;;;9.27;;
45322;SDS011;31382;50.200;8.674;2024-03-22T05:44:01;21.83;;;10.75;;
45322;SDS011;31382;50.200;8.674;2024-03-22T05:49:01;21.85;;;9.95;;
45322;SDS011;31382;50.200;8.674;2024-03-22T05:54:02;24.77;;;10.63;;
45322;SDS011;31382;50.200;8.674;2024-03-22T05:59:02;23.08;;;10.32;;
45322;SDS011;31382;50.200;8.674;2024-03-22T06:04:03;26.77;;;11.27;;
45322;SDS011;31382;50.200;8.674;2024-03-22T06:09:04;25.92;;;11.45;;
45322;SDS011;31382;50.200;8.674;2024-03-22T06:14:09;25.88;;;11.95;;
45322;SDS011;31382;50.200;8.674;2024-03-22T06:19:09;23.17;;;11.10;;
45322;SDS011;31382;50.200;8.674;2024-03-22T06:24:10;28.17;;;10.38;;
45322;SDS011;31382;50.200;8.674;2024-03-22T06:29:11;26.02;;;12.18;;
45322;SDS011;31382;50.200;8.674;2024-03-22T06:34:12;20.50;;;10.63;;
45322;SDS011;31382;50.200;8.674;2024-03-22T06:39:13;24.50;;;11.00;;
45322;SDS011;31382;50.200;8.674;2024-03-22T06:44:14;24.50;;;12.15;;
45322;SDS011;31382;50.200;8.674;2024-03-22T06:49:15;23.00;;;11.00;;
45322;SDS011;31382;50.200;8.674;2024-03-22T06:54:15;20.95;;;9.90;;
45322;SDS011;31382;50.200;8.674;2024-03-22T06:59:16;22.30;;;11.15;;
45322;SDS011;31382;50.200;8.674;2024-03-22T07:04:17;27.13;;;10.73;;
45322;SDS011;31382;50.200;8.674;2024-03-22T07:09:18;21.63;;;11.40;;
45322;SDS011;31382;50.200;8.674;2024-03-22T07:14:18;21.48;;;10.00;;
45322;SDS011;31382;50.200;8.674;2024-03-22T07:19:19;22.80;;;10.40;;
45322;SDS011;31382;50.200;8.674;2024-03-22T07:24:21;19.13;;;9.95;;
45322;SDS011;31382;50.200;8.674;2024-03-22T07:29:24;23.23;;;10.48;;
45322;SDS011;31382;50.200;8.674;2024-03-22T07:34:24;18.30;;;10.15;;
45322;SDS011;31382;50.200;8.674;2024-03-22T07:39:25;19.50;;;9.60;;
45322;SDS011;31382;50.200;8.674;2024-03-22T07:44:25;17.77;;;8.95;;
45322;SDS011;31382;50.200;8.674;2024-03-22T07:49:29;19.73;;;8.88;;
45322;SDS011;31382;50.200;8.674;2024-03-22T07:54:29;17.33;;;7.82;;
45322;SDS011;31382;50.200;8.674;2024-03-22T07:59:30;20.25;;;9.48;;
45322;SDS011;31382;50.200;8.674;2024-03-22T08:04:30;19.08;;;8.32;;
45322;SDS011;31382;50.200;8.674;2024-03-22T08:09:31;17.27;;;8.85;;
45322;SDS011;31382;50.200;8.674;2024-03-22T08:14:31;18.73;;;8.30;;
45322;SDS011;31382;50.200;8.674;2024-03-22T08:19:32;19.50;;;9.27;;
45322;SDS011;31382;50.200;8.674;2024-03-22T08:24:32;18.45;;;8.55;;
45322;SDS011;31382;50.200;8.674;2024-03-22T08:29:34;14.98;;;8.27;;
45322;SDS011;31382;50.200;8.674;2024-03-22T08:34:34;18.38;;;7.13;;
45322;SDS011;31382;50.200;8.674;2024-03-22T08:39:35;16.13;;;9.25;;
45322;SDS011;31382;50.200;8.674;2024-03-22T08:44:36;16.02;;;8.15;;
45322;SDS011;31382;50.200;8.674;2024-03-22T08:49:36;14.00;;;8.15;;
45322;SDS011;31382;50.200;8.674;2024-03-22T08:54:37;11.98;;;6.82;;
45322;SDS011;31382;50.200;8.674;2024-03-22T08:59:37;11.45;;;6.75;;
45322;SDS011;31382;50.200;8.674;2024-03-22T09:04:38;15.38;;;7.07;;
45322;SDS011;31382;50.200;8.674;2024-03-22T09:09:38;17.77;;;7.43;;
45322;SDS011;31382;50.200;8.674;2024-03-22T09:14:39;15.90;;;8.60;;
45322;SDS011;31382;50.200;8.674;2024-03-22T09:19:40;13.65;;;7.30;;
45322;SDS011;31382;50.200;8.674;2024-03-22T09:24:41;13.63;;;7.72;;
45322;SDS011;31382;50.200;8.674;2024-03-22T09:29:41;13.85;;;6.80;;
45322;SDS011;31382;50.200;8.674;2024-03-22T09:34:43;12.32;;;6.78;;
45322;SDS011;31382;50.200;8.674;2024-03-22T09:39:44;11.95;;;6.78;;
45322;SDS011;31382;50.200;8.674;2024-03-22T09:44:48;13.57;;;6.28;;
45322;SDS011;31382;50.200;8.674;2024-03-22T09:49:49;12.35;;;6.40;;
45322;SDS011;31382;50.200;8.674;2024-03-22T09:54:49;11.18;;;4.88;;
45322;SDS011;31382;50.200;8.674;2024-03-22T09:59:51;8.65;;;4.90;;
45322;SDS011;31382;50.200;8.674;2024-03-22T10:04:51;10.00;;;4.38;;
45322;SDS011;31382;50.200;8.674;2024-03-22T10:09:52;9.98;;;4.18;;
45322;SDS011;31382;50.200;8.674;2024-03-22T10:14:53;11.23;;;4.07;;
45322;SDS011;31382;50.200;8.674;2024-03-22T10:19:53;8.20;;;4.40;;
45322;SDS011;31382;50.200;8.674;2024-03-22T10:24:54;6.45;;;4.32;;
45322;SDS011;31382;50.200;8.674;2024-03-22T10:29:55;7.68;;;4.38;;
45322;SDS011;31382;50.200;8.674;2024-03-22T10:34:57;6.82;;;4.13;;
45322;SDS011;31382;50.200;8.674;2024-03-22T10:39:58;8.02;;;3.72;;
45322;SDS011;31382;50.200;8.674;2024-03-22T10:45:08;10.00;;;3.00;;
45322;SDS011;31382;50.200;8.674;2024-03-22T10:50:10;7.75;;;3.92;;
45322;SDS011;31382;50.200;8.674;2024-03-22T10:55:17;9.95;;;4.15;;
45322;SDS011;31382;50.200;8.674;2024-03-22T11:00:29;7.07;;;4.25;;
45322;SDS011;31382;50.200;8.674;2024-03-22T11:05:34;5.65;;;3.40;;
45322;SDS011;31382;50.200;8.674;2024-03-22T11:10:34;7.45;;;3.78;;
45322;SDS011;31382;50.200;8.674;2024-03-22T11:15:35;6.63;;;4.43;;
45322;SDS011;31382;50.200;8.674;2024-03-22T11:20:36;6.38;;;4.05;;
45322;SDS011;31382;50.200;8.674;2024-03-22T11:25:37;8.95;;;4.90;;
45322;SDS011;31382;50.200;8.674;2024-03-22T11:30:37;8.90;;;4.78;;
45322;SDS011;31382;50.200;8.674;2024-03-22T11:35:38;8.38;;;5.10;;
45322;SDS011;31382;50.200;8.674;2024-03-22T11:40:39;9.15;;;5.22;;
45322;SDS011;31382;50.200;8.674;2024-03-22T11:45:39;9.35;;;5.28;;
45322;SDS011;31382;50.200;8.674;2024-03-22T11:50:41;8.63;;;5.07;;
45322;SDS011;31382;50.200;8.674;2024-03-22T11:55:41;9.48;;;5.18;;
45322;SDS011;31382;50.200;8.674;2024-03-22T12:00:42;8.32;;;4.78;;
45322;SDS011;31382;50.200;8.674;2024-03-22T12:05:42;8.73;;;5.25;;
45322;SDS011;31382;50.200;8.674;2024-03-22T12:10:43;9.68;;;4.95;;
45322;SDS011;31382;50.200;8.674;2024-03-22T12:15:44;6.45;;;4.53;;
45322;SDS011;31382;50.200;8.674;2024-03-22T12:20:44;7.47;;;5.05;;
45322;SDS011;31382;50.200;8.674;2024-03-22T12:25:45;7.35;;;5.22;;
45322;SDS011;31382;50.200;8.674;2024-03-22T12:30:45;8.75;;;5.13;;
45322;SDS011;31382;50.200;8.674;2024-03-22T12:35:46;10.45;;;5.10;;
45322;SDS011;31382;50.200;8.674;2024-03-22T12:40:48;12.30;;;5.18;;
45322;SDS011;31382;50.200;8.674;2024-03-22T12:45:50;10.95;;;5.95;;
45322;SDS011;31382;50.200;8.674;2024-03-22T12:50:50;10.82;;;5.43;;
45322;SDS011;31382;50.200;8.674;2024-03-22T12:55:51;6.13;;;4.65;;
45322;SDS011;31382;50.200;8.674;2024-03-22T13:00:52;8.50;;;5.28;;
45322;SDS011;31382;50.200;8.674;2024-03-22T13:05:52;9.30;;;4.90;;
45322;SDS011;31382;50.200;8.674;2024-03-22T13:10:53;11.70;;;5.68;;
45322;SDS011;31382;50.200;8.674;2024-03-22T13:15:56;11.80;;;4.97;;
45322;SDS011;31382;50.200;8.674;2024-03-22T13:20:57;13.27;;;5.20;;
45322;SDS011;31382;50.200;8.674;2024-03-22T13:25:57;9.18;;;4.93;;
45322;SDS011;31382;50.200;8.674;2024-03-22T13:31:04;6.93;;;4.90;;
45322;SDS011;31382;50.200;8.674;2024-03-22T13:36:08;9.38;;;5.28;;
45322;SDS011;31382;50.200;8.674;2024-03-22T13:41:08;8.93;;;4.68;;
45322;SDS011;31382;50.200;8.674;2024-03-22T13:46:09;10.32;;;4.72;;
45322;SDS011;31382;50.200;8.674;2024-03-22T13:51:12;11.77;;;4.53;;
45322;SDS011;31382;50.200;8.674;2024-03-22T13:56:13;6.78;;;3.95;;
45322;SDS011;31382;50.200;8.674;2024-03-22T14:01:13;8.77;;;4.53;;
45322;SDS011;31382;50.200;8.674;2024-03-22T14:06:14;6.35;;;4.15;;
45322;SDS011;31382;50.200;8.674;2024-03-22T14:11:14;11.57;;;4.43;;
45322;SDS011;31382;50.200;8.674;2024-03-22T14:16:15;10.73;;;5.00;;
45322;SDS011;31382;50.200;8.674;2024-03-22T14:21:19;11.45;;;5.18;;
45322;SDS011;31382;50.200;8.674;2024-03-22T14:26:20;7.43;;;4.10;;
45322;SDS011;31382;50.200;8.674;2024-03-22T14:31:20;8.18;;;4.32;;
45322;SDS011;31382;50.200;8.674;2024-03-22T14:36:21;9.95;;;5.50;;
45322;SDS011;31382;50.200;8.674;2024-03-22T14:41:22;12.32;;;4.88;;
45322;SDS011;31382;50.200;8.674;2024-03-22T14:46:22;11.27;;;4.95;;
45322;SDS011;31382;50.200;8.674;2024-03-22T14:51:25;8.70;;;5.00;;
45322;SDS011;31382;50.200;8.674;2024-03-22T14:56:25;10.13;;;4.97;;
45322;SDS011;31382;50.200;8.674;2024-03-22T15:01:26;9.68;;;4.75;;
45322;SDS011;31382;50.200;8.674;2024-03-22T15:06:27;8.75;;;5.43;;
45322;SDS011;31382;50.200;8.674;2024-03-22T15:11:30;12.07;;;5.20;;
45322;SDS011;31382;50.200;8.674;2024-03-22T15:16:30;11.20;;;5.32;;
45322;SDS011;31382;50.200;8.674;2024-03-22T15:21:31;12.60;;;6.30;;
45322;SDS011;31382;50.200;8.674;2024-03-22T15:26:32;11.73;;;6.32;;
45322;SDS011;31382;50.200;8.674;2024-03-22T15:31:32;9.13;;;6.38;;
45322;SDS011;31382;50.200;8.674;2024-03-22T15:36:33;13.82;;;7.43;;
45322;SDS011;31382;50.200;8.674;2024-03-22T15:41:33;14.52;;;8.00;;
45322;SDS011;31382;50.200;8.674;2024-03-22T15:46:34;10.77;;;6.63;;
45322;SDS011;31382;50.200;8.674;2024-03-22T15:51:34;14.63;;;7.72;;
45322;SDS011;31382;50.200;8.674;2024-03-22T15:56:35;13.13;;;8.05;;
45322;SDS011;31382;50.200;8.674;2024-03-22T16:01:35;14.68;;;8.75;;
45322;SDS011;31382;50.200;8.674;2024-03-22T16:06:36;15.00;;;8.77;;
45322;SDS011;31382;50.200;8.674;2024-03-22T16:11:37;12.70;;;6.88;;
45322;SDS011;31382;50.200;8.674;2024-03-22T16:16:37;17.98;;;9.32;;
45322;SDS011;31382;50.200;8.674;2024-03-22T16:21:38;14.60;;;8.38;;
45322;SDS011;31382;50.200;8.674;2024-03-22T16:26:38;12.32;;;7.40;;
45322;SDS011;31382;50.200;8.674;2024-03-22T16:31:39;17.00;;;8.13;;
45322;SDS011;31382;50.200;8.674;2024-03-22T16:36:43;16.00;;;7.47;;
45322;SDS011;31382;50.200;8.674;2024-03-22T16:41:43;14.35;;;7.82;;
45322;SDS011;31382;50.200;8.674;2024-03-22T16:46:44;12.82;;;7.00;;
45322;SDS011;31382;50.200;8.674;2024-03-22T16:51:45;14.35;;;6.88;;
45322;SDS011;31382;50.200;8.674;2024-03-22T16:56:45;14.73;;;8.05;;
45322;SDS011;31382;50.200;8.674;2024-03-22T17:01:45;15.30;;;7.70;;
45322;SDS011;31382;50.200;8.674;2024-03-22T17:06:46;16.52;;;8.98;;
45322;SDS011;31382;50.200;8.674;2024-03-22T17:11:46;12.90;;;8.00;;
45322;SDS011;31382;50.200;8.674;2024-03-22T17:16:47;17.00;;;8.13;;
45322;SDS011;31382;50.200;8.674;2024-03-22T17:21:50;13.77;;;7.50;;
45322;SDS011;31382;50.200;8.674;2024-03-22T17:26:51;12.65;;;7.70;;
45322;SDS011;31382;50.200;8.674;2024-03-22T17:31:52;10.68;;;7.50;;
45322;SDS011;31382;50.200;8.674;2024-03-22T17:36:52;11.60;;;6.57;;
45322;SDS011;31382;50.200;8.674;2024-03-22T17:41:53;15.63;;;7.03;;
45322;SDS011;31382;50.200;8.674;2024-03-22T17:46:53;12.45;;;6.53;;
45322;SDS011;31382;50.200;8.674;2024-03-22T17:51:54;13.40;;;6.80;;
45322;SDS011;31382;50.200;8.674;2024-03-22T17:56:54;13.40;;;7.63;;
45322;SDS011;31382;50.200;8.674;2024-03-22T18:01:55;14.93;;;7.13;;
45322;SDS011;31382;50.200;8.674;2024-03-22T18:06:55;14.48;;;7.60;;
45322;SDS011;31382;50.200;8.674;2024-03-22T18:11:56;13.40;;;7.90;;
45322;SDS011;31382;50.200;8.674;2024-03-22T18:16:56;15.27;;;8.60;;
45322;SDS011;31382;50.200;8.674;2024-03-22T18:21:57;20.58;;;10.00;;
45322;SDS011;31382;50.200;8.674;2024-03-22T18:26:58;21.60;;;12.15;;
45322;SDS011;31382;50.200;8.674;2024-03-22T18:31:59;17.38;;;11.55;;
45322;SDS011;31382;50.200;8.674;2024-03-22T18:36:59;24.63;;;10.68;;
45322;SDS011;31382;50.200;8.674;2024-03-22T18:42:00;20.02;;;10.05;;
45322;SDS011;31382;50.200;8.674;2024-03-22T18:47:01;20.85;;;9.40;;
45322;SDS011;31382;50.200;8.674;2024-03-22T18:52:02;50.63;;;21.17;;
45322;SDS011;31382;50.200;8.674;2024-03-22T18:57:02;35.50;;;17.00;;
45322;SDS011;31382;50.200;8.674;2024-03-22T19:02:04;19.58;;;10.95;;
45322;SDS011;31382;50.200;8.674;2024-03-22T19:07:04;23.23;;;11.23;;
45322;SDS011;31382;50.200;8.674;2024-03-22T19:12:05;20.80;;;10.43;;
45322;SDS011;31382;50.200;8.674;2024-03-22T19:17:06;22.92;;;10.20;;
45322;SDS011;31382;50.200;8.674;2024-03-22T19:22:08;23.98;;;10.43;;
45322;SDS011;31382;50.200;8.674;2024-03-22T19:27:09;16.00;;;9.80;;
45322;SDS011;31382;50.200;8.674;2024-03-22T19:32:09;19.63;;;10.98;;
45322;SDS011;31382;50.200;8.674;2024-03-22T19:37:10;21.63;;;11.55;;
45322;SDS011;31382;50.200;8.674;2024-03-22T19:42:10;19.80;;;10.82;;
45322;SDS011;31382;50.200;8.674;2024-03-22T19:47:11;19.92;;;11.07;;
45322;SDS011;31382;50.200;8.674;2024-03-22T19:52:12;19.30;;;9.77;;
45322;SDS011;31382;50.200;8.674;2024-03-22T19:57:13;19.48;;;10.50;;
45322;SDS011;31382;50.200;8.674;2024-03-22T20:02:14;22.08;;;10.80;;
45322;SDS011;31382;50.200;8.674;2024-03-22T20:07:15;17.00;;;12.13;;
45322;SDS011;31382;50.200;8.674;2024-03-22T20:12:15;21.08;;;10.38;;
45322;SDS011;31382;50.200;8.674;2024-03-22T20:17:16;17.05;;;10.32;;
45322;SDS011;31382;50.200;8.674;2024-03-22T20:22:17;19.27;;;10.93;;
45322;SDS011;31382;50.200;8.674;2024-03-22T20:27:18;16.50;;;10.90;;
45322;SDS011;31382;50.200;8.674;2024-03-22T20:32:18;24.13;;;11.63;;
45322;SDS011;31382;50.200;8.674;2024-03-22T20:37:19;22.40;;;11.32;;
